createdAt,value
2022-10-16T00:01:41.079Z,97616.22
2022-10-16T00:04:07.951Z,97611.81
2022-10-16T00:06:34.725Z,97610.16
2022-10-16T00:09:01.873Z,97616.22
2022-10-16T00:11:37.611Z,97617.91
2022-10-16T00:14:12.213Z,97612.13
2022-10-16T00:16:39.685Z,97613.09
2022-10-16T00:19:07.873Z,97617.34
2022-10-16T00:21:34.974Z,97621.78
2022-10-16T00:24:06.635Z,97627.03
2022-10-16T00:26:35.426Z,97626.88
2022-10-16T00:29:03.689Z,97634.75
2022-10-16T00:31:30.986Z,97635.56
2022-10-16T00:33:58.161Z,97631.44
2022-10-16T00:36:27.456Z,97636.84
2022-10-16T00:38:58.376Z,97643.75
2022-10-16T00:41:26.415Z,97634.22
2022-10-16T00:44:00.136Z,97641.28
2022-10-16T00:46:36.210Z,97637.69
2022-10-16T00:49:09.243Z,97643.09
2022-10-16T00:51:56.303Z,97624.88
2022-10-16T00:54:29.197Z,97624.88
2022-10-16T00:56:59.195Z,97637.31
2022-10-16T00:59:34.522Z,97640.09
2022-10-16T01:02:03.460Z,97631.53
2022-10-16T01:04:37.934Z,97643.97
2022-10-16T01:07:30.501Z,97643.31
2022-10-16T01:10:39.656Z,97634.78
2022-10-16T01:13:41.735Z,97642.81
2022-10-16T01:16:25.992Z,97641.31
2022-10-16T01:19:06.668Z,97642.28
2022-10-16T01:21:42.131Z,97643.25
2022-10-16T01:24:40.892Z,97639.78
2022-10-16T01:27:31.942Z,97648.78
2022-10-16T01:30:24.189Z,97654.34
2022-10-16T01:33:01.268Z,97649.91
2022-10-16T01:35:37.033Z,97643.84
2022-10-16T01:38:33.586Z,97647.28
2022-10-16T01:41:09.415Z,97642.22
2022-10-16T01:43:49.136Z,97646.63
2022-10-16T01:46:20.925Z,97651.88
2022-10-16T01:48:51.646Z,97649.41
2022-10-16T01:51:21.427Z,97663.19
2022-10-16T01:53:55.314Z,97675.31
2022-10-16T01:56:25.204Z,97673.00
2022-10-16T01:59:08.062Z,97672.03
2022-10-16T02:01:40.035Z,97678.75
2022-10-16T02:04:20.106Z,97685.94
2022-10-16T02:06:46.907Z,97686.78
2022-10-16T02:09:14.000Z,97684.97
2022-10-16T02:11:40.781Z,97697.94
2022-10-16T02:14:08.501Z,97692.69
2022-10-16T02:16:40.755Z,97683.03
2022-10-16T02:19:09.006Z,97686.47
2022-10-16T02:21:58.995Z,97681.22
2022-10-16T02:24:39.469Z,97678.75
2022-10-16T02:27:33.605Z,97685.66
2022-10-16T02:30:30.507Z,97683.84
2022-10-16T02:33:01.970Z,97684.81
2022-10-16T02:35:30.417Z,97681.22
2022-10-16T02:37:58.151Z,97682.19
2022-10-16T02:40:26.998Z,97676.97
2022-10-16T02:42:55.579Z,97682.19
2022-10-16T02:45:23.904Z,97677.94
2022-10-16T02:47:50.799Z,97672.69
2022-10-16T02:50:18.133Z,97683.03
2022-10-16T02:52:44.868Z,97668.41
2022-10-16T02:55:11.671Z,97669.25
2022-10-16T02:57:39.466Z,97680.56
2022-10-16T03:00:08.957Z,97683.34
2022-10-16T03:02:36.030Z,97678.91
2022-10-16T03:05:02.821Z,97682.50
2022-10-16T03:07:29.571Z,97675.63
2022-10-16T03:09:56.405Z,97675.63
2022-10-16T03:12:23.284Z,97683.47
2022-10-16T03:14:50.016Z,97670.38
2022-10-16T03:17:17.710Z,97679.06
2022-10-16T03:19:44.512Z,97679.22
2022-10-16T03:22:11.597Z,97680.03
2022-10-16T03:24:38.314Z,97681.84
2022-10-16T03:27:05.227Z,97687.91
2022-10-16T03:29:33.070Z,97683.63
2022-10-16T03:32:00.912Z,97689.84
2022-10-16T03:34:28.904Z,97687.22
2022-10-16T03:36:55.866Z,97686.41
2022-10-16T03:39:22.678Z,97678.53
2022-10-16T03:41:49.549Z,97684.63
2022-10-16T03:44:16.486Z,97687.22
2022-10-16T03:46:43.404Z,97688.88
2022-10-16T03:49:10.223Z,97697.72
2022-10-16T03:51:37.435Z,97703.63
2022-10-16T03:54:04.401Z,97704.59
2022-10-16T03:56:31.354Z,97707.06
2022-10-16T03:58:58.211Z,97705.44
2022-10-16T04:01:26.046Z,97700.19
2022-10-16T04:03:53.046Z,97704.47
2022-10-16T04:06:20.035Z,97707.06
2022-10-16T04:08:46.948Z,97712.31
2022-10-16T04:11:13.932Z,97715.91
2022-10-16T04:13:40.799Z,97715.91
2022-10-16T04:16:07.641Z,97712.63
2022-10-16T04:18:34.478Z,97723.78
2022-10-16T04:21:08.370Z,97728.06
2022-10-16T04:23:35.400Z,97730.97
2022-10-16T04:26:02.491Z,97731.66
2022-10-16T04:28:29.959Z,97733.59
2022-10-16T04:30:56.742Z,97726.41
2022-10-16T04:33:23.606Z,97731.66
2022-10-16T04:35:57.326Z,97729.69
2022-10-16T04:38:24.168Z,97721.16
2022-10-16T04:40:50.964Z,97733.28
2022-10-16T04:43:17.871Z,97728.06
2022-10-16T04:45:44.754Z,97725.59
2022-10-16T04:48:12.175Z,97719.50
2022-10-16T04:50:39.254Z,97721.44
2022-10-16T04:53:08.410Z,97728.34
2022-10-16T04:55:35.609Z,97724.91
2022-10-16T04:58:02.543Z,97719.13
2022-10-16T05:00:29.507Z,97712.91
2022-10-16T05:02:56.440Z,97709.59
2022-10-16T05:05:23.964Z,97715.81
2022-10-16T05:07:50.897Z,97718.44
2022-10-16T05:10:18.176Z,97716.13
2022-10-16T05:12:45.422Z,97719.41
2022-10-16T05:15:12.418Z,97725.47
2022-10-16T05:17:42.504Z,97723.00
2022-10-16T05:20:12.623Z,97725.63
2022-10-16T05:22:39.590Z,97735.44
2022-10-16T05:25:07.090Z,97740.03
2022-10-16T05:27:33.789Z,97726.22
2022-10-16T05:30:00.519Z,97732.72
2022-10-16T05:32:27.286Z,97736.31
2022-10-16T05:34:54.010Z,97739.09
2022-10-16T05:37:20.880Z,97732.34
2022-10-16T05:39:47.847Z,97744.63
2022-10-16T05:42:15.537Z,97754.28
2022-10-16T05:44:42.537Z,97755.28
2022-10-16T05:47:09.862Z,97756.09
2022-10-16T05:49:39.133Z,97771.00
2022-10-16T05:52:08.343Z,97777.72
2022-10-16T05:54:35.103Z,97788.88
2022-10-16T05:57:03.019Z,97791.34
2022-10-16T05:59:29.766Z,97790.38
2022-10-16T06:01:56.494Z,97795.47
2022-10-16T06:04:23.328Z,97796.31
2022-10-16T06:06:50.097Z,97792.59
2022-10-16T06:09:17.005Z,97797.38
2022-10-16T06:11:43.911Z,97789.66
2022-10-16T06:14:11.007Z,97785.47
2022-10-16T06:16:39.482Z,97792.22
2022-10-16T06:19:10.248Z,97788.50
2022-10-16T06:21:37.280Z,97786.56
2022-10-16T06:24:04.451Z,97797.09
2022-10-16T06:26:32.679Z,97796.69
2022-10-16T06:29:01.427Z,97798.56
2022-10-16T06:31:31.675Z,97803.22
2022-10-16T06:33:58.819Z,97796.13
2022-10-16T06:36:26.693Z,97800.88
2022-10-16T06:38:54.112Z,97802.47
2022-10-16T06:41:23.782Z,97793.97
2022-10-16T06:43:51.267Z,97799.16
2022-10-16T06:46:22.938Z,97808.50
2022-10-16T06:48:50.246Z,97818.84
2022-10-16T06:51:23.156Z,97814.19
2022-10-16T06:54:04.978Z,97813.34
2022-10-16T06:56:34.195Z,97815.28
2022-10-16T06:59:01.961Z,97808.91
2022-10-16T07:01:29.548Z,97816.13
2022-10-16T07:03:56.761Z,97828.25
2022-10-16T07:06:26.460Z,97831.31
2022-10-16T07:08:54.098Z,97839.31
2022-10-16T07:11:23.994Z,97849.75
2022-10-16T07:13:54.966Z,97852.13
2022-10-16T07:16:30.231Z,97860.47
2022-10-16T07:19:00.730Z,97863.56
2022-10-16T07:21:32.380Z,97873.53
2022-10-16T07:24:02.109Z,97877.28
2022-10-16T07:26:33.312Z,97869.41
2022-10-16T07:29:00.459Z,97868.28
2022-10-16T07:31:28.185Z,97873.25
2022-10-16T07:33:55.751Z,97873.75
2022-10-16T07:36:23.280Z,97875.88
2022-10-16T07:38:52.819Z,97884.56
2022-10-16T07:41:22.458Z,97888.03
2022-10-16T07:43:52.304Z,97891.47
2022-10-16T07:46:21.705Z,97901.31
2022-10-16T07:48:49.458Z,97905.84
2022-10-16T07:51:21.035Z,97899.66
2022-10-16T07:53:49.011Z,97892.59
2022-10-16T07:56:17.528Z,97881.78
2022-10-16T07:58:45.160Z,97877.88
2022-10-16T08:01:15.881Z,97885.16
2022-10-16T08:03:45.352Z,97885.53
2022-10-16T08:06:12.221Z,97872.75
2022-10-16T08:08:39.033Z,97870.69
2022-10-16T08:11:05.943Z,97880.41
2022-10-16T08:13:33.368Z,97887.69
2022-10-16T08:16:00.596Z,97896.44
2022-10-16T08:18:27.595Z,97891.06
2022-10-16T08:21:01.160Z,97907.53
2022-10-16T08:23:29.023Z,97899.75
2022-10-16T08:26:02.291Z,97907.72
2022-10-16T08:28:29.268Z,97917.28
2022-10-16T08:30:57.727Z,97915.31
2022-10-16T08:33:24.508Z,97930.50
2022-10-16T08:35:55.190Z,97916.56
2022-10-16T08:38:22.430Z,97915.84
2022-10-16T08:40:52.720Z,97911.38
2022-10-16T08:44:03.154Z,97910.69
2022-10-16T08:46:50.603Z,97919.47
2022-10-16T08:49:18.789Z,97911.63
2022-10-16T08:51:47.415Z,97903.56
2022-10-16T08:54:41.570Z,97906.53
2022-10-16T08:57:18.471Z,97917.06
2022-10-16T08:59:47.007Z,97921.50
2022-10-16T09:02:37.965Z,97922.03
2022-10-16T09:05:22.048Z,97912.81
2022-10-16T09:08:15.706Z,97919.22
2022-10-16T09:10:57.339Z,97925.69
2022-10-16T09:14:11.072Z,97926.69
2022-10-16T09:17:02.120Z,97918.63
2022-10-16T09:19:44.778Z,97904.13
2022-10-16T09:22:18.098Z,97913.81
2022-10-16T09:24:44.945Z,97916.44
2022-10-16T09:27:14.420Z,97924.19
2022-10-16T09:29:41.963Z,97920.91
2022-10-16T09:32:16.926Z,97916.44
2022-10-16T09:34:54.966Z,97917.28
2022-10-16T09:37:27.272Z,97935.09
2022-10-16T09:39:57.057Z,97925.53
2022-10-16T09:42:34.670Z,97925.19
2022-10-16T09:45:02.075Z,97929.31
2022-10-16T09:47:31.860Z,97938.53
2022-10-16T09:50:05.138Z,97946.06
2022-10-16T09:52:33.155Z,97947.38
2022-10-16T09:55:03.707Z,97956.41
2022-10-16T09:57:31.625Z,97945.88
2022-10-16T09:59:59.814Z,97935.94
2022-10-16T10:02:39.270Z,97952.41
2022-10-16T10:05:26.060Z,97943.22
2022-10-16T10:08:06.739Z,97948.38
2022-10-16T10:10:40.379Z,97959.56
2022-10-16T10:13:21.407Z,97950.41
2022-10-16T10:15:48.895Z,97945.66
2022-10-16T10:18:24.839Z,97950.56
2022-10-16T10:23:31.779Z,97947.91
2022-10-16T10:26:28.088Z,97947.19
2022-10-16T10:29:00.847Z,97956.31
2022-10-16T10:31:42.401Z,97949.31
2022-10-16T10:34:46.964Z,97936.09
2022-10-16T10:37:44.913Z,97946.66
2022-10-16T10:41:02.765Z,97947.31
2022-10-16T10:44:05.888Z,97959.16
2022-10-16T10:46:35.012Z,97955.13
2022-10-16T10:49:15.581Z,97947.88
2022-10-16T10:52:06.486Z,97941.72
2022-10-16T10:55:01.329Z,97945.84
2022-10-16T10:57:58.518Z,97950.53
2022-10-16T11:01:07.208Z,97950.72
2022-10-16T11:03:58.525Z,97942.06
2022-10-16T11:06:40.506Z,97947.97
2022-10-16T11:09:16.416Z,97949.72
2022-10-16T11:11:50.739Z,97943.53
2022-10-16T11:14:31.385Z,97947.88
2022-10-16T11:17:17.917Z,97937.25
2022-10-16T11:19:56.643Z,97939.44
2022-10-16T11:22:42.195Z,97945.19
2022-10-16T11:25:24.734Z,97940.72
2022-10-16T11:28:16.699Z,97948.94
2022-10-16T11:30:57.154Z,97952.22
2022-10-16T11:33:46.782Z,97945.28
2022-10-16T11:36:32.392Z,97950.56
2022-10-16T11:39:24.124Z,97947.16
2022-10-16T11:42:38.816Z,97942.59
2022-10-16T11:45:35.668Z,97942.03
2022-10-16T11:48:46.676Z,97951.63
2022-10-16T11:52:00.318Z,97947.91
2022-10-16T11:54:46.453Z,97940.41
2022-10-16T11:57:27.873Z,97944.09
2022-10-16T12:00:21.885Z,97945.75
2022-10-16T12:03:19.225Z,97949.22
2022-10-16T12:06:36.085Z,97947.50
2022-10-16T12:09:04.236Z,97951.78
2022-10-16T12:11:36.037Z,97947.66
2022-10-16T12:14:11.384Z,97942.44
2022-10-16T12:17:00.672Z,97948.13
2022-10-16T12:19:31.232Z,97940.09
2022-10-16T12:22:01.843Z,97948.72
2022-10-16T12:24:31.180Z,97947.94
2022-10-16T12:26:58.380Z,97947.94
2022-10-16T12:29:43.732Z,97950.41
2022-10-16T12:32:46.107Z,97942.41
2022-10-16T12:35:25.881Z,97938.56
2022-10-16T12:37:53.748Z,97934.16
2022-10-16T12:40:33.039Z,97933.41
2022-10-16T12:43:11.530Z,97935.28
2022-10-16T12:45:38.310Z,97931.53
2022-10-16T12:48:26.427Z,97923.31
2022-10-16T12:51:25.882Z,97919.50
2022-10-16T12:54:23.650Z,97922.06
2022-10-16T12:57:21.207Z,97926.78
2022-10-16T12:59:58.067Z,97926.47
2022-10-16T13:02:52.536Z,97931.41
2022-10-16T13:05:28.596Z,97921.28
2022-10-16T13:08:17.792Z,97929.06
2022-10-16T13:11:09.683Z,97936.09
2022-10-16T13:14:01.278Z,97931.44
2022-10-16T13:17:30.060Z,97931.59
2022-10-16T13:20:22.174Z,97947.22
2022-10-16T13:23:09.139Z,97948.03
2022-10-16T13:26:14.257Z,97946.28
2022-10-16T13:28:41.126Z,97937.53
2022-10-16T13:31:20.832Z,97951.41
2022-10-16T13:33:55.609Z,97934.44
2022-10-16T13:36:29.634Z,97936.78
2022-10-16T13:39:29.297Z,97940.78
2022-10-16T13:42:19.504Z,97937.16
2022-10-16T13:44:52.615Z,97931.16
2022-10-16T13:47:22.826Z,97928.19
2022-10-16T13:50:15.624Z,97939.00
2022-10-16T13:52:42.499Z,97940.75
2022-10-16T13:55:18.783Z,97949.59
2022-10-16T13:57:46.022Z,97946.16
2022-10-16T14:00:25.392Z,97941.50
2022-10-16T14:03:02.296Z,97941.50
2022-10-16T14:05:29.332Z,97949.13
2022-10-16T14:07:58.449Z,97949.13
2022-10-16T14:10:32.010Z,97935.47
2022-10-16T14:13:05.423Z,97939.09
2022-10-16T14:15:35.333Z,97939.66
2022-10-16T14:18:03.529Z,97942.69
2022-10-16T14:20:34.834Z,97950.47
2022-10-16T14:23:05.521Z,97937.59
2022-10-16T14:25:33.900Z,97939.25
2022-10-16T14:28:23.324Z,97929.19
2022-10-16T14:30:57.910Z,97942.34
2022-10-16T14:33:35.318Z,97922.34
2022-10-16T14:36:12.302Z,97918.53
2022-10-16T14:38:51.606Z,97918.34
2022-10-16T14:41:24.608Z,97917.94
2022-10-16T14:43:58.576Z,97904.97
2022-10-16T14:46:37.191Z,97921.06
2022-10-16T14:49:12.494Z,97917.06
2022-10-16T14:51:43.018Z,97919.56
2022-10-16T14:54:10.673Z,97923.00
2022-10-16T14:56:57.794Z,97914.81
2022-10-16T14:59:39.474Z,97925.78
2022-10-16T15:02:34.261Z,97917.41
2022-10-16T15:05:17.227Z,97916.59
2022-10-16T15:07:44.379Z,97922.34
2022-10-16T15:10:11.471Z,97922.44
2022-10-16T15:12:38.298Z,97921.47
2022-10-16T15:15:33.262Z,97929.69
2022-10-16T15:18:01.816Z,97919.78
2022-10-16T15:20:34.673Z,97929.06
2022-10-16T15:23:05.436Z,97927.69
2022-10-16T15:25:44.273Z,97927.63
2022-10-16T15:28:13.618Z,97924.94
2022-10-16T15:30:41.113Z,97930.00
2022-10-16T15:33:21.862Z,97934.41
2022-10-16T15:35:51.193Z,97931.63
2022-10-16T15:38:20.966Z,97937.94
2022-10-16T15:40:50.159Z,97944.84
2022-10-16T15:43:17.284Z,97958.88
2022-10-16T15:45:44.252Z,97959.66
2022-10-16T15:48:14.283Z,97954.28
2022-10-16T15:53:14.915Z,97958.91
2022-10-16T15:55:41.881Z,97958.00
2022-10-16T15:58:08.704Z,97968.78
2022-10-16T16:00:35.549Z,97969.34
2022-10-16T16:03:02.540Z,97980.00
2022-10-16T16:05:29.285Z,97981.00
2022-10-16T16:07:57.683Z,97981.81
2022-10-16T16:10:24.529Z,97987.00
2022-10-16T16:12:54.456Z,97984.19
2022-10-16T16:15:23.138Z,97977.16
2022-10-16T16:17:50.699Z,97987.56
2022-10-16T16:20:17.818Z,97983.13
2022-10-16T16:22:44.690Z,97989.09
2022-10-16T16:25:11.782Z,97987.94
2022-10-16T16:27:39.505Z,97986.16
2022-10-16T16:30:08.262Z,97981.56
2022-10-16T16:32:35.965Z,97992.59
2022-10-16T16:35:04.782Z,97993.44
2022-10-16T16:37:32.079Z,98002.81
2022-10-16T16:40:01.459Z,97998.22
2022-10-16T16:42:28.978Z,97989.13
2022-10-16T16:44:55.863Z,98006.28
2022-10-16T16:47:22.768Z,98024.13
2022-10-16T16:49:49.640Z,98020.16
2022-10-16T16:52:18.587Z,98023.44
2022-10-16T16:54:52.269Z,98030.06
2022-10-16T16:57:21.161Z,98032.34
2022-10-16T16:59:51.145Z,98025.25
2022-10-16T17:02:18.100Z,98032.00
2022-10-16T17:04:44.932Z,98046.84
2022-10-16T17:07:11.736Z,98038.44
2022-10-16T17:09:38.525Z,98040.88
2022-10-16T17:12:05.854Z,98050.59
2022-10-16T17:14:33.317Z,98057.19
2022-10-16T17:17:00.129Z,98064.56
2022-10-16T17:19:26.857Z,98060.44
2022-10-16T17:21:53.945Z,98058.97
2022-10-16T17:24:21.146Z,98061.94
2022-10-16T17:26:49.072Z,98064.34
2022-10-16T17:29:18.361Z,98072.41
2022-10-16T17:31:45.808Z,98070.09
2022-10-16T17:34:15.920Z,98073.06
2022-10-16T17:36:47.683Z,98067.41
2022-10-16T17:39:20.652Z,98063.63
2022-10-16T17:41:49.035Z,98063.41
2022-10-16T17:44:22.682Z,98075.09
2022-10-16T17:46:53.425Z,98068.69
2022-10-16T17:49:21.515Z,98068.16
2022-10-16T17:51:54.118Z,98072.59
2022-10-16T17:54:21.698Z,98074.22
2022-10-16T17:56:49.458Z,98080.63
2022-10-16T17:59:16.841Z,98069.22
2022-10-16T18:01:46.422Z,98085.00
2022-10-16T18:04:17.065Z,98086.31
2022-10-16T18:06:46.029Z,98078.88
2022-10-16T18:09:18.117Z,98079.34
2022-10-16T18:11:46.203Z,98085.75
2022-10-16T18:14:15.677Z,98095.63
2022-10-16T18:16:43.615Z,98095.06
2022-10-16T18:19:12.192Z,98089.47
2022-10-16T18:21:39.103Z,98095.72
2022-10-16T18:24:06.201Z,98097.97
2022-10-16T18:26:33.266Z,98098.09
2022-10-16T18:29:02.601Z,98097.41
2022-10-16T18:31:33.308Z,98102.00
2022-10-16T18:34:09.862Z,98105.78
2022-10-16T18:36:43.915Z,98107.09
2022-10-16T18:39:12.919Z,98104.56
2022-10-16T18:41:44.639Z,98109.16
2022-10-16T18:44:11.659Z,98111.28
2022-10-16T18:46:38.896Z,98112.25
2022-10-16T18:49:05.935Z,98106.34
2022-10-16T18:51:40.586Z,98108.56
2022-10-16T18:54:11.655Z,98109.03
2022-10-16T18:56:39.550Z,98114.31
2022-10-16T18:59:09.003Z,98115.13
2022-10-16T19:01:40.947Z,98112.66
2022-10-16T19:04:14.330Z,98113.78
2022-10-16T19:06:50.832Z,98119.38
2022-10-16T19:09:22.386Z,98125.88
2022-10-16T19:11:58.150Z,98134.09
2022-10-16T19:14:25.702Z,98145.06
2022-10-16T19:19:36.508Z,98145.81
2022-10-16T19:22:17.333Z,98137.81
2022-10-16T19:24:47.117Z,98148.94
2022-10-16T19:27:13.934Z,98153.00
2022-10-16T19:29:40.729Z,98159.66
2022-10-16T19:32:08.443Z,98163.72
2022-10-16T19:37:16.798Z,98164.59
2022-10-16T19:42:24.871Z,98156.91
2022-10-16T19:44:51.941Z,98157.81
2022-10-16T19:47:20.928Z,98158.38
2022-10-16T19:49:50.629Z,98162.56
2022-10-16T19:52:17.505Z,98155.38
2022-10-16T19:54:44.393Z,98154.19
2022-10-16T19:57:11.280Z,98161.63
2022-10-16T19:59:40.759Z,98175.34
2022-10-16T20:02:11.242Z,98156.03
2022-10-16T20:04:38.057Z,98163.38
2022-10-16T20:07:05.055Z,98164.06
2022-10-16T20:09:35.185Z,98163.66
2022-10-16T20:12:03.322Z,98165.97
2022-10-16T20:14:30.313Z,98174.56
2022-10-16T20:16:57.115Z,98174.13
2022-10-16T20:19:24.107Z,98175.25
2022-10-16T20:21:51.039Z,98179.13
2022-10-16T20:24:18.635Z,98188.94
2022-10-16T20:26:45.419Z,98193.63
2022-10-16T20:29:12.224Z,98192.38
2022-10-16T20:31:41.167Z,98192.00
2022-10-16T20:34:11.436Z,98194.31
2022-10-16T20:36:42.522Z,98186.88
2022-10-16T20:39:11.209Z,98198.47
2022-10-16T20:41:38.650Z,98201.34
2022-10-16T20:44:06.351Z,98207.28
2022-10-16T20:46:33.396Z,98206.84
2022-10-16T20:49:10.470Z,98209.88
2022-10-16T20:51:44.171Z,98206.03
2022-10-16T20:54:12.223Z,98209.88
2022-10-16T20:56:39.125Z,98213.44
2022-10-16T20:59:06.893Z,98212.06
2022-10-16T21:01:36.548Z,98221.19
2022-10-16T21:04:07.691Z,98216.19
2022-10-16T21:06:38.387Z,98219.91
2022-10-16T21:09:06.699Z,98221.00
2022-10-16T21:11:36.212Z,98217.84
2022-10-16T21:14:06.067Z,98220.00
2022-10-16T21:16:34.235Z,98226.44
2022-10-16T21:19:01.236Z,98217.91
2022-10-16T21:21:37.943Z,98218.16
2022-10-16T21:24:06.635Z,98217.34
2022-10-16T21:26:33.761Z,98227.09
2022-10-16T21:29:05.999Z,98225.44
2022-10-16T21:31:34.020Z,98222.13
2022-10-16T21:34:00.894Z,98234.25
2022-10-16T21:36:31.620Z,98237.84
2022-10-16T21:39:03.441Z,98238.13
2022-10-16T21:41:30.527Z,98240.03
2022-10-16T21:43:58.903Z,98248.88
2022-10-16T21:46:31.492Z,98239.50
2022-10-16T21:49:01.909Z,98250.78
2022-10-16T21:51:40.348Z,98249.09
2022-10-16T21:54:12.471Z,98249.00
2022-10-16T21:56:39.469Z,98251.03
2022-10-16T21:59:07.035Z,98262.47
2022-10-16T22:01:34.004Z,98257.50
2022-10-16T22:04:00.802Z,98247.03
2022-10-16T22:06:29.239Z,98252.53
2022-10-16T22:08:59.901Z,98252.66
2022-10-16T22:11:39.124Z,98250.28
2022-10-16T22:14:17.017Z,98259.09
2022-10-16T22:16:44.931Z,98251.50
2022-10-16T22:19:14.438Z,98243.78
2022-10-16T22:21:42.938Z,98252.06
2022-10-16T22:24:10.399Z,98253.84
2022-10-16T22:26:38.503Z,98252.28
2022-10-16T22:29:06.414Z,98256.00
2022-10-16T22:31:34.067Z,98256.97
2022-10-16T22:34:03.928Z,98260.53
2022-10-16T22:36:32.168Z,98262.59
2022-10-16T22:38:59.262Z,98267.00
2022-10-16T22:41:26.555Z,98254.28
2022-10-16T22:43:53.882Z,98265.56
2022-10-16T22:46:28.065Z,98272.16
2022-10-16T22:48:56.364Z,98265.53
2022-10-16T22:51:24.733Z,98272.69
2022-10-16T22:53:51.894Z,98275.41
2022-10-16T22:56:20.899Z,98270.31
2022-10-16T22:58:48.640Z,98267.13
2022-10-16T23:01:39.879Z,98275.09
2022-10-16T23:04:08.805Z,98270.50
2022-10-16T23:06:39.886Z,98272.41
2022-10-16T23:09:08.693Z,98276.38
2022-10-16T23:11:36.906Z,98275.69
2022-10-16T23:14:03.911Z,98267.94
2022-10-16T23:16:30.716Z,98275.91
2022-10-16T23:18:58.431Z,98278.66
2022-10-16T23:21:25.999Z,98280.56
2022-10-16T23:23:54.542Z,98280.81
2022-10-16T23:26:25.712Z,98272.28
2022-10-16T23:28:53.072Z,98281.06
2022-10-16T23:31:20.265Z,98282.13
2022-10-16T23:33:47.148Z,98286.75
2022-10-16T23:36:18.272Z,98283.44
2022-10-16T23:38:47.954Z,98286.31
2022-10-16T23:41:17.560Z,98289.19
2022-10-16T23:43:46.151Z,98296.44
2022-10-16T23:46:15.911Z,98295.84
2022-10-16T23:48:44.724Z,98303.94
2022-10-16T23:59:21.848Z,98306.59
